HDCHD论坛

 找回密码
 立即注册
收藏本版 (451)

1080P/2160P高清电影区 今日: 35 |主题: 23664|排名: 1 

作者 回复/查看 最后发表
[1080p] 死亡飞车2 [未分级版] Death Race 2 Unrated 2010 BluRay 1080p DTS x264-CHD 10.8G 字幕 attachment heatlevel  ...23456..27 HDCHD 2014-4-14 26733751 国分寺的夕阳 2026-4-7 14:43
[1080p] 死亡飞车 [未分级版] Death Race UNRATED 2008 BluRay 1080p DTSMA x264-CHD 12.7G 字幕 attachment heatlevel  ...23456..40 HDCHD 2014-4-14 39949157 国分寺的夕阳 2026-4-7 14:39
[1080p] 刺陵 [周杰伦 林志玲] The Treasure Hunter 2009 Bluray 1080p DTS x264-CHD 9.5G 字幕 attachment heatlevel  ...23456..36 HDCHD 2014-4-14 35032817 国分寺的夕阳 2026-4-7 14:37
[1080p] 洛杉矶之战[国英双语][特效中字]Battle.Los.Angeles.2011.BluRay.1080p.x264.DTS 17G attachment heatlevel  ...23456..32 HDCHD 2014-4-14 31333012 国分寺的夕阳 2026-4-7 13:50
[1080p] 阿波罗十三号 [国/英] Apollo 13 1995 BluRay 1080p DTS 2Audio x264-CHD 14G 字幕 attachment heatlevel  ...23456..19 HDCHD 2014-4-14 18723585 国分寺的夕阳 2026-4-7 13:47
[1080p] 世界末日/绝世天劫 [国/英]Armageddon 1998 Bluray 1080p DTS 2Audio x264-CHD 16.7G 字幕 attachment heatlevel  ...23456..35 HDCHD 2014-4-13 34547190 waz0113 2025-2-6 18:36
[1080p] 阿信电影版/阿信的故事 [粤日双语] Oshin 2013 1080p BluRay x264-WiKi 7.95G 字幕 attachment heatlevel  ...23456..15 HDCHD 2014-4-13 14420222 国分寺的夕阳 2026-4-7 13:44
[1080p] 颤栗/高压电 High.Tension.(Haute.Tension).2003.Unrated.Directors.Cut.Bluray.1080p attachment heatlevel  ...23456..30 HDCHD 2014-4-13 29635108 国分寺的夕阳 2026-4-7 13:25
[1080p] 屏息/速水花美男(港) No Breathing 2013 1080p BluRay x264 DTS-WiKi 11.7G 字幕 attachment heatlevel  ...23456..21 HDCHD 2014-4-13 20021367 国分寺的夕阳 2026-4-7 13:11
[1080p] 嗜血校园 Vamp.U.2013.1080p.BluRay.DTS-HD.HR.7.1.x264 7.65G attachment heatlevel  ...23456..16 HDCHD 2014-4-13 15122927 国分寺的夕阳 2026-4-7 13:09
[1080p] 血缘关系/血缘 Blood.Ties.2013.1080p.BluRay.DTS-HD.MA.5.1.x264 11.9G attachment heatlevel  ...23456..14 HDCHD 2014-4-13 13421751 国分寺的夕阳 2026-4-7 13:05
[1080p] 机器人/机器 The.Machine.2013.1080p.BluRay.DTS-HD.MA.5.1.x264 8.5G attachment heatlevel  ...23456..24 HDCHD 2014-4-13 23734554 国分寺的夕阳 2026-4-7 13:01
[1080p] 终极奇兵/十三勇士 The.13th.Warrior.1999.FRE.Limited.Edition.Bluray.1080p.DTS 12G attachment heatlevel  ...23456..16 HDCHD 2014-4-13 15220074 国分寺的夕阳 2026-4-7 12:57
[1080p] 星际旅行2: 可汗之怒 Star.Trek.2.The.Wrath.of.Khan.1982.Restored.Bluray.1080p attachment heatlevel  ...23456..24 HDCHD 2014-4-13 23726272 国分寺的夕阳 2026-4-7 12:54
[1080p] 羞耻/耻辱/色辱(港) Shame.2011.Bluray.1080p.DTS-HD.x264 12.2G attachment heatlevel  ...23456..34 HDCHD 2014-4-13 33442035 国分寺的夕阳 2026-4-7 12:49
[1080p] 阿信电影版/阿信的故事(港) [中文字幕]Oshin.2013.1080p.BluRay.x264 7.95G attachment heatlevel  ...23456..14 HDCHD 2014-4-13 13221128 国分寺的夕阳 2026-4-7 12:45
[1080p] 以毒攻毒/绝命出路/豹子弹 Exit.Wounds.2001.1080p.BluRay.x264 7.65G attachment heatlevel  ...23456..23 HDCHD 2014-4-12 22421404 国分寺的夕阳 2026-4-7 12:43
[1080p] 大开杀戒/神龙再现/复仇杀手 Get.Carter.2000.1080p.BluRay.x264 7.65G attachment heatlevel  ...23456..17 HDCHD 2014-4-12 16929155 国分寺的夕阳 2026-4-7 11:55
[1080p] 风俗店之行改变了我的人生 [中文字幕] 2013 1080p BluRay x264 DTS-WiKi 13G attachment heatlevel  ...23456..19 HDCHD 2014-4-12 18228493 国分寺的夕阳 2026-4-7 11:53
[1080p] 摇滚巨星 Rock.Star.2001.1080p.BluRay.x264 7.65G attachment heatlevel  ...23456..15 HDCHD 2014-4-11 14619153 国分寺的夕阳 2026-4-7 11:48
[1080p] 深仇 Vendetta.2013.1080p.BluRay.DTS-HD.MA.5.1.x264-HDW 15.6G attachment heatlevel  ...23456..15 HDCHD 2014-4-11 14722632 国分寺的夕阳 2026-4-7 11:46
[1080p] 毒醉心迷[中英字幕]Better Living Through Chemistry 2014 1080p BluRay x264 DTS 6.8 attachment heatlevel  ...23456..15 HDCHD 2014-4-11 14623330 国分寺的夕阳 2026-4-7 11:42
[1080p] 乔/乔与男孩 [尼古拉斯·凯奇] Joe.2013.1080p.WEB-DL.H264 3.52G attachment heatlevel  ...23456..13 HDCHD 2014-4-11 12021321 国分寺的夕阳 2026-4-7 11:39
[1080p] 哥伦布传/1492 天堂征服者 1492.Conquest.of.Paradise.1992.GER.Bluray.1080p.DTS 17G attachment heatlevel  ...23456..16 HDCHD 2014-4-10 15324792 国分寺的夕阳 2026-4-7 11:32
[1080p] 决战尤马镇 3.10.to.Yuma.2007.Bluray.1080p.LPCM-7.1.DD-5.1EX.x264 18G attachment heatlevel  ...23456..19 HDCHD 2014-4-10 18324394 国分寺的夕阳 2026-4-7 11:30
[1080p] 无敌浩克/神奇绿巨人 The Incredible Hulk 2008 BluRay 1080p DTS x264 7.95G attachment heatlevel  ...23456..37 HDCHD 2014-4-10 36751180 国分寺的夕阳 2026-4-7 11:26
[1080p] 破浪/破浪而出 Breaking.the.Waves.1996.REMASTERED.1080p.BluRay.X264 14.2G attachment heatlevel  ...23456..21 HDCHD 2014-4-10 20321788 国分寺的夕阳 2026-4-7 11:25
[1080p] 一代宗师 [美版高码]The.Grandmaster.2013.US.Cut.BluRay.1080p.x264.DTS HDW 12.5G 字幕 attachment heatlevel  ...23456..46 HDCHD 2014-4-10 45251137 国分寺的夕阳 2026-4-7 10:44
[1080p] 让子弹飞 [高码 国语中字]Let.the.Bullets.Fly.2010.BluRay.1080p.x264.DTS HDW 21.2G 字幕 attachment heatlevel  ...23456..56 HDCHD 2014-4-10 55979676 zyp198742 2025-12-6 09:29
[1080p] 一个爱国的男人 A.Patriotic.Man.2013.1080p.BluRay.x264 7.65G attachment heatlevel  ...23456..14 HDCHD 2014-4-10 13418019 国分寺的夕阳 2026-4-7 10:33
[1080p] 魔鬼小提琴家帕格尼尼 The.Devils.Violinist.2013.1080p.BluRay.DTS.x264 9.52G attachment heatlevel  ...23456..13 HDCHD 2014-4-10 12021990 国分寺的夕阳 2026-4-7 10:16
[1080p] 斯文加利 Svengali.2013.1080p.BluRay.DTS.x264 7.65G attachment heatlevel  ...23456..10 HDCHD 2014-4-10 9317527 国分寺的夕阳 2026-4-7 10:14
[1080p] 魔力,魔力 Magic.Magic.2013.1080p.BluRay.x264 6.55G attachment heatlevel  ...23456..14 HDCHD 2014-4-9 13221797 国分寺的夕阳 2026-4-7 10:11
[1080p] 连锁阴谋/绝命大反击 Conspiracy.Theory.1997.1080p.BluRay.X264 9.83G attachment heatlevel  ...23456..17 HDCHD 2014-4-9 16122862 国分寺的夕阳 2026-4-7 10:04
[1080p] 疯狂单身夜 Best.Night.Ever.2013.1080p.BluRay.x264 6.55G attachment heatlevel  ...23456..11 HDCHD 2014-4-9 10319853 国分寺的夕阳 2026-4-7 10:03
[1080p] 魔力女战士 [国英双语][高码压制]AEon Flux 2005 1080p BluRay x264 DTS-WiKi 13.7G attachment heatlevel  ...23456..24 HDCHD 2014-4-9 23837321 国分寺的夕阳 2026-4-7 10:00
[1080p] 冲浪聚会 National.Lampoon.Presents.Surf.Party.2013.1080p.BluRay.x264 5.45G attachment heatlevel  ...23456..11 HDCHD 2014-4-9 10420339 国分寺的夕阳 2026-4-7 09:56
[1080p] 阿波罗13 Apollo.13.1995.15th.Anniversary.Bluray.1080p.DTS-HD.x264 18.6G attachment heatlevel  ...23456..19 HDCHD 2014-4-9 18729372 国分寺的夕阳 2026-4-7 09:54
[1080p] 外太空杀人小丑 Killer.Klowns.from.Outer.Space.1988.Bluray.1080p.DTS x264 9.85G attachment heatlevel  ...23456..16 HDCHD 2014-4-9 15319290 国分寺的夕阳 2026-4-7 09:42
[1080p] 勇者必胜 He.Who.Dares.2014.1080p.BluRay.x264 5.45G attachment heatlevel  ...23456..19 HDCHD 2014-4-9 18425849 国分寺的夕阳 2026-4-7 09:33
[1080p] 毛皮里的维纳斯/穿毛皮的维纳斯 Venus in Fur 2013 1080p BluRay x264-WiKi 6.56G 字幕 attachment heatlevel  ...23456..11 HDCHD 2014-4-8 10319223 国分寺的夕阳 2026-4-7 09:16
[1080p] 时间简史 [CC标准收藏版]A Brief History of Time 1991 Criterion Collection 1080p attachment heatlevel  ...23456..22 HDCHD 2014-4-8 21527655 国分寺的夕阳 2026-4-7 08:40
[1080p] 火花 Sparks 2013 1080p BluRay x264 6.55G attachment heatlevel  ...23456..17 HDCHD 2014-4-8 16423576 国分寺的夕阳 2026-4-7 08:27
[1080p] 机器人 The Machine 2013 1080p BluRay x264 6.55G attachment heatlevel  ...23456..23 HDCHD 2014-4-8 22729626 国分寺的夕阳 2026-4-7 07:39
[1080p] 驯龙骑士[国粤英三语]Justin and the Knights of Valour 2013 1080p BluRay DTS 8G 字幕 attachment heatlevel  ...23456..50 HDCHD 2014-4-7 49254542 国分寺的夕阳 2026-4-7 07:36
下一页 »

快速发帖

还可输入 80 个字符
您需要登录后才可以发帖 登录 | 立即注册

本版积分规则

QQ|小黑屋|手机版|Archiver|HDCHD论坛

GMT+8, 2026-5-4 04:01 , Processed in 1.780369 second(s), 27 queries .

Powered by Discuz! X3.2

© 2001-2013 Comsenz Inc.

返回顶部 返回版块